Hauptseite
METAR-TAF:

METAR-TAF

Flughäfen :

Flughafen Arvidsjaur

Arvidsjaur, Schweden

Breite: 65-35-25N, Länge: 019-16-55E, Höhe: 379 m

Beobachtung

Neuester Wetterbericht von vor 18 Minuten, um 22:50 UTC
Wind 8 kt aus Nord/Nordost
Temperatur -2°C
Luftfeuchtigkeit 80%
Luftdruck 1006 hPa
Sichtweite 10 km oder mehr
Schnee leicht,

METAR: ESNX 162250Z AUTO 02008KT 9999 -SN SCT015/// BKN021/// BKN026/// M02/M05 Q1006

Zeit: 01:08 (23:08 UTC)

Prognose

Neuester Wetterbericht von vor 8 Stunden und 38 Minuten, um 14:30 UTC
Gültige Prognose vom 16 um 15 UTC bis 16 um 19 UTC
Wind 6 kt aus Nord
Sichtweite: 9000 m
Durchbrochene Bewölkung in der Höhe von 2000 ft
Schnee leicht
Wahrscheinlichkeit 40%
vom 16 um 15 UTC bis 16 um 19 UTC
Sichtweite: 4000 m
Durchbrochene Bewölkung in der Höhe von 1400 ft

TAF: ESNX 161430Z 1615/1619 01006KT 9000 -SN BKN020 PROB40 1615/1619 4000 BKN014

Wetterbeobachtungen und Prognosen von mehr als 4000 Flughäfen (METAR und TAF Bericht).

Die verfügbaren Stationen werden durch gelbe und rote Markierungen auf der Karte dargestellt.

Führen Sie die Maus auf sie, um den Namen der Station zu sehen.

Darauf klicken, um die Beobachtung von Wetterbeobachtungen und Prognosen zu sehen.

Um die Karte zu ändern : klicken Sie auf den grünen Tasten mit einem schwarzen Kreuz Zum Vergrößern, auf den grünen Button mit einem Gedankenstrich zu verkleinern, oder auf die grünen Pfeile für benachbarte Karten.


METAR-TAF: